Priego, Spain
Current Conditions -  °F | °C
As of 2:00 PM on Thursday 27 Nov 2014 (Local Time) from LETL Reporting Station
Drizzle Drizzle  
Wind Chill: 50°   Ceiling: Unl
Heat Index: 50°   Visibility: 1.7mi
Dew Point: 43°   Wind: 13mph
Humidity: 76%   Direction: 140°SE
Pressure: 29.59"   Gusts: NA
Location:  40.45°N, 2.3°W
Report Text: LETL 271300Z AUTO 14011KT 120V180 2800 -DZ FEW026///FEW045/// 10/06 Q1002
Loading
Personal Weather Stations






























Interactive Weather Map New forecast layout! Learn more

10-Day Weather Forecast

Advertisements
Track Severe Weather on mobile